createdAt,value
2023-01-22T00:05:11.355Z,0.57
2023-01-22T00:10:33.183Z,0.67
2023-01-22T00:15:57.783Z,0.58
2023-01-22T00:21:19.560Z,0.62
2023-01-22T00:26:41.319Z,0.60
2023-01-22T00:32:03.267Z,0.67
2023-01-22T00:37:25.034Z,0.65
2023-01-22T00:42:46.751Z,0.62
2023-01-22T00:48:08.557Z,0.58
2023-01-22T00:53:30.547Z,0.51
2023-01-22T00:58:52.244Z,0.51
2023-01-22T01:04:14.549Z,0.53
2023-01-22T01:09:36.390Z,0.47
2023-01-22T01:14:58.226Z,0.47
2023-01-22T01:20:20.234Z,0.59
2023-01-22T01:25:42.401Z,0.61
2023-01-22T01:31:05.543Z,0.64
2023-01-22T01:36:47.274Z,0.56
2023-01-22T01:42:09.659Z,0.56
2023-01-22T01:47:35.694Z,0.65
2023-01-22T01:52:59.331Z,0.70
2023-01-22T01:58:21.736Z,0.53
2023-01-22T02:03:45.088Z,0.56
2023-01-22T02:09:07.241Z,0.63
2023-01-22T02:14:33.397Z,0.75
2023-01-22T02:19:55.298Z,0.79
2023-01-22T02:25:17.545Z,0.59
2023-01-22T02:30:39.305Z,0.46
2023-01-22T02:36:01.024Z,0.65
2023-01-22T02:41:23.046Z,0.62
2023-01-22T02:46:44.758Z,0.54
2023-01-22T02:52:06.477Z,0.58
2023-01-22T02:57:30.476Z,0.68
2023-01-22T03:02:52.176Z,0.50
2023-01-22T03:08:14.025Z,0.57
2023-01-22T03:13:54.314Z,0.56
2023-01-22T03:19:34.415Z,0.55
2023-01-22T03:24:58.551Z,0.70
2023-01-22T03:30:20.420Z,0.69
2023-01-22T03:35:42.216Z,0.75
2023-01-22T03:41:06.175Z,0.75
2023-01-22T03:46:27.872Z,0.77
2023-01-22T03:51:49.558Z,0.69
2023-01-22T03:57:11.260Z,0.59
2023-01-22T04:02:33.728Z,0.71
2023-01-22T04:07:55.421Z,0.62
2023-01-22T04:13:17.313Z,0.75
2023-01-22T04:18:39.788Z,0.59
2023-01-22T04:24:01.582Z,0.67
2023-01-22T04:29:23.358Z,0.80
2023-01-22T04:34:46.821Z,0.76
2023-01-22T04:40:09.541Z,0.76
2023-01-22T04:45:31.490Z,0.68
2023-01-22T04:50:53.256Z,0.73
2023-01-22T04:56:15.020Z,0.82
2023-01-22T05:01:36.873Z,0.65
2023-01-22T05:06:58.614Z,0.78
2023-01-22T05:12:20.330Z,0.57
2023-01-22T05:17:42.060Z,0.73
2023-01-22T05:23:03.775Z,0.74
2023-01-22T05:28:25.501Z,0.80
2023-01-22T05:33:47.210Z,0.76
2023-01-22T05:39:08.974Z,0.89
2023-01-22T05:44:32.769Z,1.03
2023-01-22T05:49:55.493Z,0.92
2023-01-22T05:55:17.313Z,0.86
2023-01-22T06:00:39.012Z,0.71
2023-01-22T06:06:02.360Z,0.73
2023-01-22T06:11:24.168Z,0.90
2023-01-22T06:16:45.948Z,0.75
2023-01-22T06:22:07.786Z,0.74
2023-01-22T06:27:29.510Z,0.69
2023-01-22T06:32:54.380Z,0.68
2023-01-22T06:38:16.100Z,0.78
2023-01-22T06:43:37.864Z,0.88
2023-01-22T06:49:01.475Z,0.79
2023-01-22T06:54:23.181Z,0.61
2023-01-22T06:59:44.949Z,0.60
2023-01-22T07:05:06.784Z,0.75
2023-01-22T07:10:28.953Z,0.74
2023-01-22T07:15:50.994Z,0.75
2023-01-22T07:21:12.986Z,0.75
2023-01-22T07:26:34.843Z,0.86
2023-01-22T07:31:56.609Z,0.84
2023-01-22T07:37:18.376Z,0.88
2023-01-22T07:42:40.071Z,0.92
2023-01-22T07:48:04.019Z,0.86
2023-01-22T07:53:25.835Z,0.83
2023-01-22T07:58:47.692Z,0.96
2023-01-22T08:04:09.438Z,0.97
2023-01-22T08:09:31.195Z,0.97
2023-01-22T08:14:52.864Z,0.75
2023-01-22T08:20:14.642Z,0.92
2023-01-22T08:25:36.351Z,0.94
2023-01-22T08:30:59.646Z,1.08
2023-01-22T08:36:21.431Z,1.13
2023-01-22T08:41:43.186Z,1.20
2023-01-22T08:47:05.377Z,1.17
2023-01-22T08:52:27.101Z,1.16
2023-01-22T08:57:56.088Z,1.03
2023-01-22T09:03:17.775Z,1.17
2023-01-22T09:08:39.458Z,1.16
2023-01-22T09:14:01.280Z,1.29
2023-01-22T09:19:22.976Z,1.21
2023-01-22T09:24:44.669Z,1.22
2023-01-22T09:30:06.917Z,1.21
2023-01-22T09:35:28.815Z,1.35
2023-01-22T09:41:02.042Z,1.44
2023-01-22T09:46:29.834Z,1.35
2023-01-22T09:51:58.337Z,1.26
2023-01-22T09:57:31.206Z,1.28
2023-01-22T10:03:02.636Z,1.39
2023-01-22T10:08:45.283Z,1.37
2023-01-22T10:14:12.386Z,1.40
2023-01-22T10:19:43.439Z,1.29
2023-01-22T10:25:05.582Z,1.29
2023-01-22T10:30:27.688Z,1.50
2023-01-22T10:35:52.208Z,1.51
2023-01-22T10:41:17.739Z,1.57
2023-01-22T10:46:39.501Z,1.56
2023-01-22T10:52:07.297Z,1.37
2023-01-22T10:57:33.399Z,1.56
2023-01-22T11:02:55.598Z,1.56
2023-01-22T11:08:19.983Z,1.73
2023-01-22T11:13:55.183Z,1.52
2023-01-22T11:19:35.965Z,1.47
2023-01-22T11:24:58.937Z,1.65
2023-01-22T11:30:29.745Z,1.72
2023-01-22T11:36:00.129Z,1.59
2023-01-22T11:41:59.036Z,1.80
2023-01-22T11:47:42.948Z,1.73
2023-01-22T11:53:10.602Z,1.77
2023-01-22T11:58:40.902Z,1.79
2023-01-22T12:04:13.989Z,1.81
2023-01-22T12:10:20.257Z,1.87
2023-01-22T12:15:51.192Z,1.79
2023-01-22T12:21:17.497Z,1.81
2023-01-22T12:26:46.564Z,1.94
2023-01-22T12:32:12.024Z,1.81
2023-01-22T12:38:02.577Z,1.96
2023-01-22T12:43:45.291Z,1.99
2023-01-22T12:49:12.994Z,1.98
2023-01-22T12:54:36.436Z,2.00
2023-01-22T13:00:08.853Z,1.86
2023-01-22T13:05:30.483Z,1.88
2023-01-22T13:11:01.949Z,1.94
2023-01-22T13:16:34.476Z,1.97
2023-01-22T13:22:00.534Z,1.98
2023-01-22T13:27:30.413Z,1.99
2023-01-22T13:33:06.478Z,2.01
2023-01-22T13:38:32.703Z,1.99
2023-01-22T13:43:54.781Z,1.98
2023-01-22T13:49:26.874Z,1.93
2023-01-22T13:54:55.916Z,2.10
2023-01-22T14:00:36.661Z,2.09
2023-01-22T14:06:11.991Z,2.15
2023-01-22T14:11:38.815Z,2.10
2023-01-22T14:17:00.537Z,2.14
2023-01-22T14:22:23.337Z,2.11
2023-01-22T14:27:47.902Z,2.19
2023-01-22T14:33:18.975Z,2.23
2023-01-22T14:38:40.661Z,2.21
2023-01-22T14:44:04.011Z,2.25
2023-01-22T14:49:25.830Z,2.16
2023-01-22T14:54:47.561Z,2.22
2023-01-22T15:00:12.539Z,2.08
2023-01-22T15:05:35.725Z,2.24
2023-01-22T15:11:00.122Z,2.20
2023-01-22T15:16:21.846Z,2.16
2023-01-22T15:21:43.581Z,2.30
2023-01-22T15:27:05.805Z,2.31
2023-01-22T15:32:27.491Z,2.28
2023-01-22T15:37:49.275Z,2.23
2023-01-22T15:43:10.947Z,2.29
2023-01-22T15:48:32.634Z,2.36
2023-01-22T15:53:56.729Z,2.28
2023-01-22T15:59:18.977Z,2.30
2023-01-22T16:04:40.700Z,2.16
2023-01-22T16:10:02.417Z,2.40
2023-01-22T16:15:24.084Z,2.35
2023-01-22T16:20:45.743Z,2.21
2023-01-22T16:26:10.457Z,2.15
2023-01-22T16:31:34.156Z,2.29
2023-01-22T16:36:57.454Z,2.25
2023-01-22T16:42:19.497Z,2.18
2023-01-22T16:47:41.214Z,2.26
2023-01-22T16:53:02.884Z,2.25
2023-01-22T16:58:24.563Z,2.26
2023-01-22T17:03:46.386Z,2.24
2023-01-22T17:09:13.223Z,2.27
2023-01-22T17:14:36.741Z,2.23
2023-01-22T17:19:58.612Z,2.20
2023-01-22T17:25:21.429Z,2.17
2023-01-22T17:30:43.196Z,2.08
2023-01-22T17:36:06.046Z,2.05
2023-01-22T17:41:29.408Z,2.20
2023-01-22T17:46:54.725Z,2.29
2023-01-22T17:52:17.876Z,2.16
2023-01-22T17:57:41.410Z,2.23
2023-01-22T18:03:04.150Z,2.27
2023-01-22T18:08:28.796Z,2.20
2023-01-22T18:13:50.610Z,2.30
2023-01-22T18:19:12.414Z,2.30
2023-01-22T18:24:36.201Z,2.29
2023-01-22T18:29:57.880Z,2.04
2023-01-22T18:35:19.825Z,1.89
2023-01-22T18:40:41.731Z,1.85
2023-01-22T18:46:11.446Z,1.90
2023-01-22T18:51:33.443Z,1.87
2023-01-22T18:56:55.192Z,1.76
2023-01-22T19:02:21.049Z,1.85
2023-01-22T19:07:42.767Z,1.81
2023-01-22T19:13:04.521Z,1.80
2023-01-22T19:18:27.830Z,1.89
2023-01-22T19:23:54.032Z,1.90
2023-01-22T19:29:17.625Z,1.89
2023-01-22T19:34:39.391Z,1.98
2023-01-22T19:40:01.795Z,1.97
2023-01-22T19:45:23.462Z,1.86
2023-01-22T19:50:45.175Z,1.94
2023-01-22T19:56:16.764Z,1.88
2023-01-22T20:01:39.180Z,1.81
2023-01-22T20:07:05.043Z,1.96
2023-01-22T20:12:26.801Z,2.05
2023-01-22T20:17:50.107Z,1.93
2023-01-22T20:23:12.010Z,2.01
2023-01-22T20:28:33.943Z,2.02
2023-01-22T20:33:57.011Z,2.05
2023-01-22T20:39:19.613Z,2.05
2023-01-22T20:44:41.659Z,1.93
2023-01-22T20:50:05.551Z,1.83
2023-01-22T20:55:27.391Z,1.68
2023-01-22T21:00:49.167Z,1.84
2023-01-22T21:06:14.103Z,1.82
2023-01-22T21:11:38.650Z,1.72
2023-01-22T21:17:00.392Z,1.77
2023-01-22T21:22:22.196Z,1.81
2023-01-22T21:27:44.129Z,1.87
2023-01-22T21:33:05.880Z,1.84
2023-01-22T21:38:28.467Z,1.77
2023-01-22T21:44:08.911Z,1.72
2023-01-22T21:49:34.745Z,1.48
2023-01-22T21:54:56.845Z,1.53
2023-01-22T22:00:19.636Z,1.62
2023-01-22T22:05:42.614Z,1.67
2023-01-22T22:11:04.822Z,1.68
2023-01-22T22:16:27.000Z,1.72
2023-01-22T22:21:50.550Z,1.71
2023-01-22T22:27:12.267Z,1.82
2023-01-22T22:32:33.979Z,1.87
2023-01-22T22:37:55.668Z,1.85
2023-01-22T22:43:17.438Z,1.58
2023-01-22T22:48:39.215Z,1.67
2023-01-22T22:54:11.552Z,1.76
2023-01-22T22:59:33.220Z,1.71
2023-01-22T23:04:54.892Z,1.69
2023-01-22T23:10:28.826Z,1.69
2023-01-22T23:15:50.625Z,1.67
2023-01-22T23:21:19.555Z,1.69
2023-01-22T23:26:43.246Z,1.61
2023-01-22T23:32:05.151Z,1.48
2023-01-22T23:37:26.904Z,1.38
2023-01-22T23:42:49.907Z,1.54
2023-01-22T23:48:11.850Z,1.60
2023-01-22T23:53:41.708Z,1.71
2023-01-22T23:59:03.821Z,1.76
